createdAt,value
2022-11-24T00:00:26.898Z,14.50
2022-11-24T00:03:12.379Z,9.13
2022-11-24T00:06:03.671Z,8.77
2022-11-24T00:08:49.337Z,5.80
2022-11-24T00:11:36.470Z,8.88
2022-11-24T00:14:21.867Z,10.05
2022-11-24T00:17:07.208Z,9.57
2022-11-24T00:19:52.862Z,13.27
2022-11-24T00:22:38.013Z,9.45
2022-11-24T00:25:23.362Z,9.23
2022-11-24T00:28:08.834Z,12.90
2022-11-24T00:30:54.288Z,9.57
2022-11-24T00:33:40.114Z,6.70
2022-11-24T00:36:27.820Z,12.55
2022-11-24T00:39:15.502Z,11.65
2022-11-24T00:42:00.848Z,10.10
2022-11-24T00:44:46.193Z,7.03
2022-11-24T00:47:32.974Z,5.97
2022-11-24T00:50:19.201Z,6.10
2022-11-24T00:53:04.757Z,8.82
2022-11-24T00:55:50.973Z,11.27
2022-11-24T00:58:36.645Z,8.65
2022-11-24T01:01:25.120Z,8.68
2022-11-24T01:04:10.439Z,9.82
2022-11-24T01:06:56.017Z,9.30
2022-11-24T01:09:43.252Z,11.27
2022-11-24T01:12:28.988Z,9.73
2022-11-24T01:15:14.525Z,7.55
2022-11-24T01:18:00.133Z,6.97
2022-11-24T01:20:45.777Z,6.18
2022-11-24T01:23:31.910Z,6.18
2022-11-24T01:26:19.849Z,4.97
2022-11-24T01:29:05.890Z,6.68
2022-11-24T01:31:51.541Z,6.78
2022-11-24T01:34:37.208Z,6.82
2022-11-24T01:37:22.946Z,6.22
2022-11-24T01:40:09.173Z,7.18
2022-11-24T01:42:55.031Z,8.18
2022-11-24T01:45:41.290Z,5.40
2022-11-24T01:48:38.268Z,6.60
2022-11-24T01:51:26.961Z,5.80
2022-11-24T01:54:17.504Z,4.47
2022-11-24T01:57:13.375Z,8.68
2022-11-24T02:00:05.128Z,5.50
2022-11-24T02:02:51.031Z,5.85
2022-11-24T02:05:41.953Z,9.20
2022-11-24T02:08:47.790Z,4.55
2022-11-24T02:14:24.984Z,4.32
2022-11-24T02:17:10.913Z,3.35
2022-11-24T02:19:59.458Z,5.57
2022-11-24T02:23:01.632Z,4.65
2022-11-24T02:25:47.052Z,3.72
2022-11-24T02:28:33.170Z,6.20
2022-11-24T02:31:19.021Z,4.43
2022-11-24T02:34:04.380Z,5.55
2022-11-24T02:36:49.750Z,4.60
2022-11-24T02:39:35.747Z,5.45
2022-11-24T02:42:21.548Z,5.05
2022-11-24T02:45:09.826Z,6.85
2022-11-24T02:47:55.684Z,4.07
2022-11-24T02:50:41.174Z,6.22
2022-11-24T02:53:26.533Z,6.65
2022-11-24T02:56:11.994Z,5.95
2022-11-24T02:58:57.308Z,4.22
2022-11-24T03:01:42.972Z,4.20
2022-11-24T03:04:28.410Z,4.35
2022-11-24T03:07:14.721Z,6.88
2022-11-24T03:10:00.683Z,5.60
2022-11-24T03:12:46.538Z,3.25
2022-11-24T03:15:31.948Z,5.90
2022-11-24T03:18:17.653Z,4.90
2022-11-24T03:21:03.031Z,4.22
2022-11-24T03:23:48.537Z,4.63
2022-11-24T03:26:34.928Z,2.83
2022-11-24T03:29:20.581Z,9.10
2022-11-24T03:32:06.258Z,5.05
2022-11-24T03:34:51.740Z,5.63
2022-11-24T03:37:37.360Z,3.20
2022-11-24T03:40:22.807Z,6.10
2022-11-24T03:43:08.231Z,8.55
2022-11-24T03:45:53.778Z,4.95
2022-11-24T03:48:40.174Z,7.28
2022-11-24T03:51:25.599Z,5.15
2022-11-24T03:54:11.653Z,5.80
2022-11-24T03:56:57.303Z,5.90
2022-11-24T03:59:42.819Z,4.72
2022-11-24T04:02:28.271Z,7.28
2022-11-24T04:05:13.784Z,10.23
2022-11-24T04:08:02.976Z,5.95
2022-11-24T04:10:53.843Z,5.45
2022-11-24T04:13:39.529Z,5.10
2022-11-24T04:16:25.181Z,5.75
2022-11-24T04:19:10.459Z,7.13
2022-11-24T04:21:56.482Z,7.88
2022-11-24T04:24:42.675Z,9.02
2022-11-24T04:27:29.020Z,5.15
2022-11-24T04:30:15.747Z,7.57
2022-11-24T04:33:02.056Z,6.53
2022-11-24T04:35:47.844Z,9.07
2022-11-24T04:39:24.845Z,9.35
2022-11-24T04:44:24.591Z,5.72
2022-11-24T04:47:17.166Z,5.55
2022-11-24T04:50:04.612Z,8.32
2022-11-24T04:52:50.383Z,5.55
2022-11-24T04:55:39.072Z,4.45
2022-11-24T04:58:24.653Z,10.90
2022-11-24T05:01:09.994Z,8.98
2022-11-24T05:03:56.850Z,10.20
2022-11-24T05:06:42.732Z,8.40
2022-11-24T05:09:41.994Z,5.28
2022-11-24T05:15:19.227Z,7.10
2022-11-24T05:18:07.038Z,7.97
2022-11-24T05:20:52.678Z,7.05
2022-11-24T05:23:38.125Z,7.20
2022-11-24T05:26:23.609Z,6.25
2022-11-24T05:29:09.396Z,9.32
2022-11-24T05:31:55.036Z,7.10
2022-11-24T05:34:40.561Z,6.35
2022-11-24T05:37:27.943Z,12.02
2022-11-24T05:40:14.003Z,6.82
2022-11-24T05:42:59.635Z,6.65
2022-11-24T05:45:45.303Z,6.93
2022-11-24T05:48:31.017Z,11.13
2022-11-24T05:51:16.420Z,6.72
2022-11-24T05:54:02.132Z,11.23
2022-11-24T05:56:47.754Z,12.38
2022-11-24T05:59:33.245Z,16.27
2022-11-24T06:02:19.173Z,12.52
2022-11-24T06:05:05.335Z,12.93
2022-11-24T06:07:50.948Z,10.10
2022-11-24T06:10:36.665Z,11.10
2022-11-24T06:13:22.190Z,15.93
2022-11-24T06:16:08.283Z,15.02
2022-11-24T06:18:53.772Z,14.02
2022-11-24T06:21:39.241Z,11.82
2022-11-24T06:24:24.543Z,11.25
2022-11-24T06:27:09.878Z,11.77
2022-11-24T06:29:55.220Z,12.02
2022-11-24T06:32:49.149Z,14.52
2022-11-24T06:35:35.644Z,12.25
2022-11-24T06:38:24.308Z,19.17
2022-11-24T06:41:15.461Z,13.27
2022-11-24T06:44:04.023Z,12.00
2022-11-24T06:46:49.802Z,15.98
2022-11-24T06:49:35.427Z,14.45
2022-11-24T06:52:20.867Z,13.85
2022-11-24T06:55:07.227Z,12.88
2022-11-24T06:57:52.587Z,10.60
2022-11-24T07:00:39.145Z,12.38
2022-11-24T07:03:24.646Z,11.95
2022-11-24T07:06:10.623Z,17.13
2022-11-24T07:08:56.419Z,12.63
2022-11-24T07:11:42.664Z,12.73
2022-11-24T07:14:28.018Z,15.70
2022-11-24T07:17:13.766Z,13.75
2022-11-24T07:19:59.316Z,15.80
2022-11-24T07:22:44.777Z,16.33
2022-11-24T07:25:30.343Z,9.93
2022-11-24T07:28:15.936Z,12.60
2022-11-24T07:31:07.039Z,11.70
2022-11-24T07:33:54.458Z,15.75
2022-11-24T07:36:39.784Z,16.25
2022-11-24T07:39:25.997Z,14.20
2022-11-24T07:42:11.497Z,11.20
2022-11-24T07:44:57.411Z,13.00
2022-11-24T07:47:42.948Z,11.05
2022-11-24T07:50:28.141Z,15.98
2022-11-24T07:53:13.638Z,11.85
2022-11-24T07:56:01.005Z,11.32
2022-11-24T07:58:51.351Z,9.50
2022-11-24T08:01:38.864Z,12.57
2022-11-24T08:04:24.411Z,11.32
2022-11-24T08:07:10.195Z,16.05
2022-11-24T08:09:56.295Z,13.18
2022-11-24T08:12:43.832Z,12.98
2022-11-24T08:15:30.583Z,14.02
2022-11-24T08:18:16.927Z,11.40
2022-11-24T08:21:03.242Z,13.45
2022-11-24T08:23:49.118Z,11.02
2022-11-24T08:26:34.609Z,13.35
2022-11-24T08:29:19.995Z,8.65
2022-11-24T08:32:06.171Z,5.85
2022-11-24T08:34:52.174Z,10.38
2022-11-24T08:37:42.136Z,7.38
2022-11-24T08:40:27.536Z,11.52
2022-11-24T08:43:16.339Z,8.88
2022-11-24T08:46:04.879Z,4.38
2022-11-24T08:48:53.983Z,6.38
2022-11-24T08:51:39.617Z,3.90
2022-11-24T08:54:25.970Z,5.82
2022-11-24T08:57:18.723Z,5.82
2022-11-24T09:00:07.884Z,12.85
2022-11-24T09:02:58.456Z,8.45
2022-11-24T09:05:51.602Z,6.90
2022-11-24T09:08:38.822Z,10.00
2022-11-24T09:11:25.865Z,9.82
2022-11-24T09:14:11.217Z,8.93
2022-11-24T09:16:56.624Z,10.23
2022-11-24T09:19:42.218Z,16.20
2022-11-24T09:22:27.745Z,4.55
2022-11-24T09:25:13.602Z,6.70
2022-11-24T09:28:00.045Z,6.53
2022-11-24T09:30:45.374Z,4.95
2022-11-24T09:33:34.524Z,5.75
2022-11-24T09:36:20.432Z,5.13
2022-11-24T09:39:06.779Z,5.40
2022-11-24T09:42:04.357Z,4.82
2022-11-24T09:46:03.359Z,7.05
2022-11-24T09:48:42.702Z,6.40
2022-11-24T09:51:31.769Z,5.82
2022-11-24T09:54:22.601Z,7.15
2022-11-24T09:57:13.738Z,4.15
2022-11-24T10:00:04.761Z,5.35
2022-11-24T10:02:50.286Z,5.10
2022-11-24T10:05:36.540Z,6.22
2022-11-24T10:08:34.914Z,4.68
2022-11-24T10:11:37.036Z,4.25
2022-11-24T10:14:34.825Z,2.45
2022-11-24T10:17:28.963Z,2.63
2022-11-24T10:20:29.527Z,5.22
2022-11-24T10:23:24.275Z,6.35
2022-11-24T10:26:20.442Z,3.38
2022-11-24T10:29:28.765Z,4.82
2022-11-24T10:32:35.827Z,2.15
2022-11-24T10:35:45.702Z,2.65
2022-11-24T10:38:47.000Z,3.63
2022-11-24T10:41:59.267Z,4.13
2022-11-24T10:44:45.132Z,2.42
2022-11-24T10:47:31.120Z,1.85
2022-11-24T10:50:25.892Z,3.45
2022-11-24T10:53:17.074Z,3.30
2022-11-24T10:56:05.151Z,5.13
2022-11-24T10:58:50.902Z,2.38
2022-11-24T11:01:36.233Z,3.40
2022-11-24T11:04:30.033Z,2.20
2022-11-24T11:07:21.565Z,4.70
2022-11-24T11:10:24.933Z,5.65
2022-11-24T11:13:30.970Z,2.65
2022-11-24T11:16:27.535Z,7.18
2022-11-24T11:19:50.816Z,3.35
2022-11-24T11:22:38.097Z,4.22
2022-11-24T11:25:33.050Z,6.30
2022-11-24T11:28:18.814Z,4.88
2022-11-24T11:31:17.494Z,5.30
2022-11-24T11:34:16.620Z,4.00
2022-11-24T11:37:09.780Z,5.60
2022-11-24T11:39:55.563Z,6.10
2022-11-24T11:43:13.298Z,5.97
2022-11-24T11:46:18.407Z,5.70
2022-11-24T11:49:04.310Z,7.68
2022-11-24T11:52:17.371Z,4.50
2022-11-24T11:55:28.473Z,4.68
2022-11-24T11:58:30.484Z,7.28
2022-11-24T12:01:46.221Z,6.97
2022-11-24T12:04:37.792Z,5.13
2022-11-24T12:07:47.560Z,5.13
2022-11-24T12:10:36.122Z,4.15
2022-11-24T12:13:47.534Z,7.50
2022-11-24T12:16:54.375Z,4.97
2022-11-24T12:19:40.032Z,5.40
2022-11-24T12:22:45.782Z,6.60
2022-11-24T12:25:38.512Z,4.72
2022-11-24T12:28:41.486Z,7.75
2022-11-24T12:31:37.799Z,8.10
2022-11-24T12:34:45.609Z,8.25
2022-11-24T12:37:58.937Z,12.50
2022-11-24T12:41:25.387Z,7.53
2022-11-24T12:44:32.384Z,7.57
2022-11-24T12:47:17.929Z,9.85
2022-11-24T12:50:10.488Z,5.47
2022-11-24T12:53:11.542Z,6.32
2022-11-24T12:56:09.553Z,4.03
2022-11-24T12:59:15.589Z,4.68
2022-11-24T13:02:22.977Z,4.78
2022-11-24T13:05:33.863Z,5.13
2022-11-24T13:08:19.791Z,5.75
2022-11-24T13:11:23.522Z,3.38
2022-11-24T13:14:16.322Z,8.57
2022-11-24T13:17:30.401Z,8.00
2022-11-24T13:20:21.567Z,6.75
2022-11-24T13:23:25.319Z,7.82
2022-11-24T13:26:27.131Z,7.70
2022-11-24T13:29:27.920Z,7.20
2022-11-24T13:32:14.452Z,6.38
2022-11-24T13:35:12.920Z,6.97
2022-11-24T13:37:58.885Z,5.63
2022-11-24T13:40:59.900Z,6.53
2022-11-24T13:44:15.057Z,6.93
2022-11-24T13:47:34.226Z,7.50
2022-11-24T13:50:21.571Z,7.95
2022-11-24T13:53:14.275Z,4.10
2022-11-24T13:56:11.967Z,4.57
2022-11-24T13:59:14.315Z,5.88
2022-11-24T14:01:59.656Z,5.35
2022-11-24T14:04:45.688Z,7.75
2022-11-24T14:07:32.155Z,6.47
2022-11-24T14:10:22.187Z,7.47
2022-11-24T14:13:16.763Z,3.88
2022-11-24T14:16:24.080Z,7.35
2022-11-24T14:19:11.506Z,5.60
2022-11-24T14:21:57.233Z,6.18
2022-11-24T14:24:45.548Z,6.60
2022-11-24T14:27:32.387Z,7.13
2022-11-24T14:30:21.336Z,6.22
2022-11-24T14:33:12.523Z,6.30
2022-11-24T14:35:58.018Z,5.47
2022-11-24T14:38:43.709Z,5.95
2022-11-24T14:41:29.653Z,5.97
2022-11-24T14:44:24.052Z,5.03
2022-11-24T14:47:30.139Z,8.60
2022-11-24T14:50:19.758Z,7.85
2022-11-24T14:53:13.975Z,10.68
2022-11-24T14:56:25.969Z,10.75
2022-11-24T14:59:22.912Z,7.18
2022-11-24T15:02:41.380Z,6.97
2022-11-24T15:05:54.711Z,7.82
2022-11-24T15:08:46.753Z,5.88
2022-11-24T15:11:34.277Z,5.63
2022-11-24T15:14:34.689Z,10.45
2022-11-24T15:17:24.790Z,7.03
2022-11-24T15:20:21.047Z,11.95
2022-11-24T15:23:19.025Z,10.55
2022-11-24T15:26:04.491Z,6.72
2022-11-24T15:28:50.384Z,7.10
2022-11-24T15:31:35.950Z,6.93
2022-11-24T15:34:22.252Z,5.57
2022-11-24T15:37:11.046Z,10.95
2022-11-24T15:39:56.649Z,8.10
2022-11-24T15:42:42.548Z,10.90
2022-11-24T15:45:28.306Z,6.15
2022-11-24T15:48:17.970Z,7.00
2022-11-24T15:51:11.325Z,8.38
2022-11-24T15:54:01.041Z,6.93
2022-11-24T15:56:47.413Z,9.15
2022-11-24T15:59:33.944Z,6.80
2022-11-24T16:02:21.816Z,14.10
2022-11-24T16:05:07.816Z,8.27
2022-11-24T16:07:53.240Z,8.40
2022-11-24T16:10:38.740Z,9.23
2022-11-24T16:13:24.550Z,13.43
2022-11-24T16:16:17.106Z,12.52
2022-11-24T16:19:02.873Z,10.05
2022-11-24T16:21:48.878Z,16.63
2022-11-24T16:24:34.994Z,9.90
2022-11-24T16:27:20.692Z,38.78
2022-11-24T16:30:07.459Z,14.18
2022-11-24T16:32:53.235Z,14.82
2022-11-24T16:35:38.574Z,13.25
2022-11-24T16:38:24.319Z,11.65
2022-11-24T16:41:10.559Z,12.85
2022-11-24T16:43:56.544Z,9.82
2022-11-24T16:46:43.496Z,13.40
2022-11-24T16:49:29.019Z,22.65
2022-11-24T16:52:15.698Z,43.10
2022-11-24T16:55:01.763Z,26.05
2022-11-24T16:57:48.447Z,14.95
2022-11-24T17:00:34.202Z,20.08
2022-11-24T17:03:20.273Z,15.10
2022-11-24T17:06:07.845Z,14.55
2022-11-24T17:08:55.609Z,13.80
2022-11-24T17:11:41.782Z,12.18
2022-11-24T17:14:27.777Z,12.30
2022-11-24T17:17:13.464Z,11.55
2022-11-24T17:19:58.980Z,10.10
2022-11-24T17:22:44.337Z,13.57
2022-11-24T17:25:29.852Z,16.05
2022-11-24T17:28:15.163Z,16.58
2022-11-24T17:31:12.126Z,26.92
2022-11-24T17:33:58.797Z,39.63
2022-11-24T17:36:46.724Z,52.80
2022-11-24T17:39:32.545Z,20.35
2022-11-24T17:42:18.504Z,19.30
2022-11-24T17:45:04.666Z,14.68
2022-11-24T17:47:50.210Z,13.98
2022-11-24T17:50:35.579Z,12.85
2022-11-24T17:53:21.241Z,10.82
2022-11-24T17:56:07.942Z,14.82
2022-11-24T17:58:59.445Z,14.65
2022-11-24T18:01:45.281Z,14.80
2022-11-24T18:04:30.915Z,18.20
2022-11-24T18:07:16.587Z,18.05
2022-11-24T18:10:02.073Z,19.02
2022-11-24T18:12:47.726Z,17.33
2022-11-24T18:15:34.837Z,14.27
2022-11-24T18:18:20.570Z,14.88
2022-11-24T18:21:06.773Z,18.83
2022-11-24T18:23:52.666Z,19.95
2022-11-24T18:26:39.534Z,18.00
2022-11-24T18:29:25.222Z,19.83
2022-11-24T18:32:10.624Z,22.88
2022-11-24T18:34:56.031Z,25.63
2022-11-24T18:37:44.344Z,23.00
2022-11-24T18:40:29.960Z,23.25
2022-11-24T18:43:15.772Z,25.23
2022-11-24T18:46:08.842Z,22.42
2022-11-24T18:48:55.290Z,27.75
2022-11-24T18:51:40.992Z,24.05
2022-11-24T18:54:29.754Z,16.88
2022-11-24T18:57:15.237Z,18.90
2022-11-24T19:00:00.665Z,23.55
2022-11-24T19:02:51.000Z,22.63
2022-11-24T19:05:36.518Z,18.77
2022-11-24T19:08:22.173Z,24.77
2022-11-24T19:11:07.677Z,23.38
2022-11-24T19:13:53.241Z,58.28
2022-11-24T19:16:39.547Z,89.22
2022-11-24T19:19:25.132Z,57.25
2022-11-24T19:22:10.806Z,37.03
2022-11-24T19:24:56.189Z,31.40
2022-11-24T19:27:41.543Z,33.47
2022-11-24T19:30:26.860Z,39.30
2022-11-24T19:33:12.375Z,52.10
2022-11-24T19:36:11.201Z,36.45
2022-11-24T19:38:58.066Z,34.90
2022-11-24T19:41:43.620Z,43.35
2022-11-24T19:44:29.139Z,42.13
2022-11-24T19:47:14.616Z,39.58
2022-11-24T19:50:00.094Z,35.60
2022-11-24T19:52:46.089Z,46.55
2022-11-24T19:55:32.723Z,42.15
2022-11-24T19:58:21.482Z,36.33
2022-11-24T20:01:15.447Z,44.55
2022-11-24T20:04:06.919Z,46.00
2022-11-24T20:06:52.668Z,35.03
2022-11-24T20:09:38.171Z,34.50
2022-11-24T20:12:23.497Z,30.88
2022-11-24T20:15:09.895Z,29.52
2022-11-24T20:17:55.720Z,22.15
2022-11-24T20:20:41.114Z,22.92
2022-11-24T20:23:26.687Z,22.52
2022-11-24T20:26:19.548Z,32.90
2022-11-24T20:29:06.321Z,30.00
2022-11-24T20:31:54.362Z,32.78
2022-11-24T20:34:39.729Z,47.92
2022-11-24T20:37:27.170Z,32.70
2022-11-24T20:40:13.028Z,38.88
2022-11-24T20:42:58.630Z,39.53
2022-11-24T20:45:44.378Z,32.10
2022-11-24T20:48:29.869Z,25.15
2022-11-24T20:51:36.352Z,22.85
2022-11-24T20:54:22.337Z,21.33
2022-11-24T20:57:07.573Z,43.42
2022-11-24T20:59:53.039Z,29.70
2022-11-24T21:02:38.388Z,27.33
2022-11-24T21:05:24.605Z,24.13
2022-11-24T21:08:10.042Z,50.33
2022-11-24T21:10:59.810Z,60.10
2022-11-24T21:13:46.052Z,62.00
2022-11-24T21:16:34.507Z,66.35
2022-11-24T21:19:22.642Z,92.72
2022-11-24T21:22:08.135Z,88.93
2022-11-24T21:24:53.539Z,82.32
2022-11-24T21:27:38.927Z,67.75
2022-11-24T21:30:25.506Z,59.60
2022-11-24T21:33:11.711Z,52.33
2022-11-24T21:36:02.493Z,52.25
2022-11-24T21:38:58.310Z,54.42
2022-11-24T21:41:43.771Z,147.15
2022-11-24T21:44:31.245Z,56.95
2022-11-24T21:47:16.683Z,39.15
2022-11-24T21:50:02.686Z,26.08
2022-11-24T21:52:48.342Z,15.90
2022-11-24T21:55:33.825Z,14.85
2022-11-24T21:58:19.264Z,11.48
2022-11-24T22:01:06.656Z,12.82
2022-11-24T22:03:52.064Z,20.55
2022-11-24T22:06:37.497Z,19.63
2022-11-24T22:09:23.129Z,15.18
2022-11-24T22:12:08.451Z,11.95
2022-11-24T22:14:53.921Z,11.77
2022-11-24T22:17:39.290Z,11.82
2022-11-24T22:20:24.626Z,14.30
2022-11-24T22:23:10.353Z,13.00
2022-11-24T22:25:56.209Z,18.83
2022-11-24T22:28:42.685Z,19.38
2022-11-24T22:31:31.132Z,10.70
2022-11-24T22:34:16.441Z,8.05
2022-11-24T22:37:01.921Z,11.70
2022-11-24T22:39:47.490Z,11.82
2022-11-24T22:42:32.730Z,11.85
2022-11-24T22:45:18.145Z,11.38
2022-11-24T22:48:03.419Z,12.00
2022-11-24T22:50:49.040Z,11.73
2022-11-24T22:53:34.564Z,12.00
2022-11-24T22:56:20.601Z,29.63
2022-11-24T22:59:06.090Z,13.15
2022-11-24T23:01:51.394Z,12.98
2022-11-24T23:04:37.176Z,18.63
2022-11-24T23:07:22.788Z,14.30
2022-11-24T23:10:08.430Z,14.77
2022-11-24T23:12:55.902Z,13.93
2022-11-24T23:15:41.769Z,14.52
2022-11-24T23:18:27.158Z,19.38
2022-11-24T23:21:20.872Z,11.75
2022-11-24T23:24:07.354Z,12.48
2022-11-24T23:26:53.080Z,13.13
2022-11-24T23:29:39.909Z,12.70
2022-11-24T23:32:25.583Z,13.75
2022-11-24T23:35:13.794Z,12.57
2022-11-24T23:38:07.331Z,12.82
2022-11-24T23:41:04.603Z,13.50
2022-11-24T23:43:50.794Z,14.00
2022-11-24T23:46:36.451Z,14.73
2022-11-24T23:49:21.861Z,10.88
2022-11-24T23:52:07.380Z,13.50
2022-11-24T23:54:52.982Z,12.50
2022-11-24T23:57:38.249Z,25.92
